Thunder radar more information blitzortung!


Rain radar more information rain snow radar


Visit our other weather sites:

Template documentation
and downloads

And another site



There are no active watches, warnings or advisories

Nearby METAR Reports

   
EHVK - Volkel Rnlafb, Netherlands
Distance from station: SW 11 mi
Updated: Mar 26 2019 12:25 pm
Overcast  
Overcast  
   Wind: WNW 9.2 mph
Wind: WNW 9.2 mph
Temperature: 50°F
Wind Chill: 46.4°F
Dew Point: 35.6°F
Humidity: 58%
Barometer: 30.42 inHg
Clouds: Overcast
Visibility: More than 6 mi
Cloud details: Overcast 5000 ft
EHVK 261625Z AUTO 30008KT 270V340 9999 OVC050 10/02 Q1030 BLU
EDLV - Niederrhein, Germany
Distance from station: SE 15 mi
Updated: Mar 26 2019 12:20 pm
Clear  
Clear  
   Wind: WNW 8.1 mph
Wind: WNW 8.1 mph
Temperature: 50°F
Wind Chill: 46.4°F
Dew Point: 35.6°F
Humidity: 58%
Barometer: 30.42 inHg
Visibility: More than 6 mi
Cloud details: Clear
EDLV 261620Z 30007KT 270V330 CAVOK 10/02 Q1030
EHDL - Deelen Rnlafb, Netherlands
Distance from station: N 22 mi
Updated: Mar 26 2019 12:25 pm
Overcast  
Overcast  
   Wind: West 9.2 mph
Wind: West 9.2 mph
Temperature: 48.2°F
Wind Chill: 44.6°F
Dew Point: 35.6°F
Humidity: 62%
Barometer: 30.42 inHg
Clouds: Overcast
Visibility: More than 6 mi
Cloud details: Overcast 5300 ft
EHDL 261625Z AUTO 28008KT 230V350 9999 OVC053 09/02 Q1030 BLU
EHEH - Eindhoven Rnlafb, Netherlands
Distance from station: SW 30 mi
Updated: Mar 26 2019 12:25 pm
Overcast  
Overcast  
   Wind: WNW 4.6 mph
Wind: WNW 4.6 mph
Temperature: 48.2°F
Wind Chill: 46.4°F
Dew Point: 35.6°F
Humidity: 62%
Barometer: 30.45 inHg
Clouds: Overcast
Visibility: More than 6 mi
Cloud details: Mostly Cloudy 4700 ft,
Overcast 5100 ft
EHEH 261625Z AUTO 30004KT 270V360 9999 BKN047 OVC051 09/02 Q1031 BLU 30006KT 9999 BKN045
EHGR - Gilze-Rijen Rnla, Netherlands
Distance from station: WSW 43 mi
Updated: Mar 26 2019 12:34 pm
Mostly Cloudy  
Mostly Cloudy  
   Wind: WNW 13.8 mph
Wind: WNW 13.8 mph
Temperature: 50°F
Wind Chill: 44.6°F
Dew Point: 35.6°F
Humidity: 58%
Barometer: 30.45 inHg
Clouds: Mostly Cloudy
Visibility: More than 6 mi
Cloud details: Mostly Cloudy 5100 ft,
Mostly Cloudy 27000 ft
EHGR 261634Z AUTO 29012KT 260V330 9999 BKN051 BKN270 10/02 Q1031 BLU 29008KT 9999 FEW025 BKN050
EBBL - Kleine-Brogel(Ba, Belgium
Distance from station: SSW 44 mi
Updated: Mar 26 2019 12:25 pm
Mostly Cloudy  
Mostly Cloudy  
   Wind: varies 1.2 mph
Wind: varies 1.2 mph
Temperature: 48.2°F
Dew Point: 35.6°F
Humidity: 62%
Barometer: 30.45 inHg
Clouds: Mostly Cloudy
Visibility: More than 6 mi
Cloud details: Few Clouds 3800 ft,
Mostly Cloudy 5000 ft
EBBL 261625Z VRB01KT 9999 FEW038 BKN050 09/02 Q1031 BLU BLU

Script developed by  Saratoga-weather.org Adapted for the template by  Weerstation Leuven

You find our weather info also at:

Weather Underground

AWEKAS

Citizen Weather Observer Program (CWOP)

HAMweather, WeatherForYou, PWS Weather

Equipment we use:

Weather-station
Davis VP2

Weather-program
Weather Display

Weather-server
HP ProDesk 600 G1

Provider
1&1 IONOS

Davis VP2

Weather Display

HP ProDesk 600 G1

1&1 IONOS